Airfield :







YOU CAN JOIN US ON...

 
LOGIN :

Register | Disclaimer

   EN    FR    IT 

 









Legend :    VFR   Marginal VFR   IFR   Intensive IFR   Very Intensive IFR
Visi :
Ceiling :
>= 8 km
>= 3000ft
5 to 8 km
1000 to 3000 ft
1500m to 5 km
500 to 1000 ft
800 to 1500m
200 to 500 ft
< 800m
< 200 ft
Symbols :   Thunderstorms  Fog  Heavy snow  Heavy precipitations  Wind > 20 kt






- Airport Elevation : 1709 ft
- IATA code : YKL


CYKL - Schefferville

CURRENT METAR :
  • 131000Z AUTO 30006KT 9SM OVC028 09/06 A2996 RMK SLP164

EXPIRED METARs :
  • 130900Z AUTO 30005KT 9SM OVC030 09/07 A2994 RMK SLP156
  • 130800Z AUTO 30006KT 9SM OVC028 09/07 A2992 RMK SLP150
  • 130700Z AUTO 30009KT 9SM OVC030 09/06 A2991 RMK SLP147
  • 130600Z AUTO 28008KT 9SM OVC032 09/07 A2990 RMK SLP141

TAF TAF CYKL
Valid from the 13 at 08:00 until the 13 at 20:00 UTC


130740Z 1308/1320 31008KT P6SM BKN030
TEMPO 1308/1316 BKN020
BECMG 1311/1313 31008G18KT
FM131800 32012KT P6SM SCT030 RMK FCST BASED ON AUTO OBS. NXT FCST BY 131400Z
CZUL FIR / North America



MET'MAP, your aeronautical weather chart ! - Copyright ORBIFLY December 2007 - Disclaimer

ORBIFLY MET'MAP TEAM :

Programming & Development : Alexandra Zaïnal
Original concept : Baudouin d'Aumeries
Technical & hardware support : Manuel Goepfert
Assistance : Marc-Olivier Méhu




SOURCES & CREDITS :

   NOAA